Time;durP1;ratioP1;P1;durP2;ratioP2;P2;SDS_P1;SDS_P2;PMS_P1;PMS_P2;Temp;Humidity;BMP_temperature;BMP_pressure;BME280_temperature;BME280_humidity;BME280_pressure;Samples;Min_cycle;Max_cycle;Signal;HPM_P1;HPM_P2
2022/01/11 00:01:21;;;;;;;23.52;8.25;;;1.40;99.90;;;;;;5029874;28;20034;-61
2022/01/11 00:03:47;;;;;;;25.38;8.55;;;1.40;99.90;;;;;;5030772;28;20064;-61
2022/01/11 00:06:31;;;;;;;21.13;7.95;;;1.40;99.90;;;;;;5030234;28;20029;-61
2022/01/11 00:09:01;;;;;;;22.83;8.48;;;1.30;99.90;;;;;;5026918;28;20026;-61
2022/01/11 00:11:27;;;;;;;28.15;10.18;;;1.40;99.90;;;;;;5030097;28;20129;-61
2022/01/11 00:13:53;;;;;;;22.90;8.95;;;1.40;99.90;;;;;;5030575;28;20474;-61
2022/01/11 00:16:19;;;;;;;24.98;9.02;;;1.40;99.90;;;;;;5028668;28;20119;-61
2022/01/11 00:18:44;;;;;;;29.17;10.23;;;1.40;99.90;;;;;;5030055;28;20130;-61
2022/01/11 00:21:11;;;;;;;24.05;9.15;;;1.40;99.90;;;;;;5029973;28;20061;-61
2022/01/11 00:26:03;;;;;;;27.80;9.48;;;1.40;99.90;;;;;;5030305;28;20030;-61
2022/01/11 00:28:29;;;;;;;29.85;10.90;;;1.50;99.90;;;;;;5029668;28;20033;-61
2022/01/11 00:30:55;;;;;;;29.08;9.82;;;1.40;99.90;;;;;;5029811;28;20037;-61
2022/01/11 00:33:40;;;;;;;22.75;8.30;;;1.40;99.90;;;;;;5029622;28;20440;-61
2022/01/11 00:36:06;;;;;;;25.70;9.32;;;1.40;99.90;;;;;;5024682;28;20493;-61
2022/01/11 00:38:36;;;;;;;26.50;9.70;;;1.50;99.90;;;;;;5028142;28;20033;-61
2022/01/11 00:41:06;;;;;;;21.17;8.25;;;1.40;99.90;;;;;;5029583;28;20044;-61
2022/01/11 00:43:33;;;;;;;22.67;7.53;;;1.40;99.90;;;;;;5027762;28;20125;-61
2022/01/11 00:45:59;;;;;;;24.27;8.50;;;1.40;99.90;;;;;;5030053;28;20033;-61
2022/01/11 00:48:26;;;;;;;24.85;9.02;;;1.40;99.90;;;;;;5029117;28;20532;-61
2022/01/11 00:50:53;;;;;;;28.77;11.07;;;1.30;99.90;;;;;;5029529;28;20113;-61
2022/01/11 00:53:19;;;;;;;26.90;9.65;;;1.30;99.90;;;;;;5020970;28;20120;-61
2022/01/11 00:55:47;;;;;;;32.28;10.93;;;1.30;99.90;;;;;;5029666;28;20036;-61
2022/01/11 00:58:14;;;;;;;26.23;9.10;;;1.30;99.90;;;;;;5029069;28;20121;-61
2022/01/11 01:00:39;;;;;;;32.80;9.75;;;1.30;99.90;;;;;;5029368;28;20124;-61
2022/01/11 01:03:06;;;;;;;32.13;12.25;;;1.30;99.90;;;;;;5029362;28;20214;-61
2022/01/11 01:05:32;;;;;;;38.25;12.38;;;1.30;99.90;;;;;;5028864;28;20037;-61
2022/01/11 01:07:59;;;;;;;33.20;11.30;;;1.30;99.90;;;;;;5029604;28;20029;-61
2022/01/11 01:10:46;;;;;;;35.45;12.57;;;1.40;99.90;;;;;;5028807;28;20481;-60
2022/01/11 01:13:15;;;;;;;31.73;11.60;;;1.40;99.90;;;;;;5028885;28;20635;-63
2022/01/11 01:15:41;;;;;;;37.67;10.52;;;1.40;99.90;;;;;;5029104;28;20370;-61
2022/01/11 01:18:07;;;;;;;36.45;10.77;;;1.40;99.90;;;;;;5029368;28;20083;-62
2022/01/11 01:20:34;;;;;;;44.33;13.23;;;1.40;99.90;;;;;;5028609;28;20109;-61
2022/01/11 01:23:00;;;;;;;33.33;11.18;;;1.40;99.90;;;;;;5029121;28;20124;-61
2022/01/11 01:25:26;;;;;;;46.70;12.18;;;1.50;99.90;;;;;;5028821;28;20555;-61
2022/01/11 01:27:53;;;;;;;37.33;11.32;;;1.50;99.90;;;;;;5029287;28;20045;-62
2022/01/11 01:30:21;;;;;;;36.08;12.35;;;1.50;99.90;;;;;;5028227;28;20045;-62
2022/01/11 01:32:48;;;;;;;39.63;12.68;;;1.40;99.90;;;;;;5025000;28;20433;-62
2022/01/11 01:35:15;;;;;;;43.72;12.57;;;1.40;99.90;;;;;;5028656;28;20451;-62
2022/01/11 01:37:41;;;;;;;40.35;13.93;;;1.40;99.90;;;;;;5029111;28;20045;-61
2022/01/11 01:40:08;;;;;;;38.88;11.85;;;1.40;99.90;;;;;;5028978;28;20037;-62
2022/01/11 01:42:35;;;;;;;41.22;10.98;;;1.40;99.90;;;;;;5027578;28;20025;-61
2022/01/11 01:45:03;;;;;;;38.55;13.18;;;1.40;99.90;;;;;;5028934;28;20041;-61
2022/01/11 01:47:29;;;;;;;33.90;11.95;;;1.30;99.90;;;;;;5028446;28;20029;-61
2022/01/11 01:49:55;;;;;;;34.22;11.98;;;1.40;99.90;;;;;;5028639;28;20038;-61
2022/01/11 01:52:22;;;;;;;32.53;12.05;;;1.40;99.90;;;;;;5028287;28;20025;-61
2022/01/11 01:54:47;;;;;;;37.40;11.02;;;1.40;99.90;;;;;;5029029;28;20029;-61
2022/01/11 01:57:13;;;;;;;38.05;10.98;;;1.40;99.90;;;;;;5031515;28;20489;-61
2022/01/11 01:59:39;;;;;;;38.50;12.02;;;1.40;99.90;;;;;;5032638;28;20041;-61
2022/01/11 02:02:07;;;;;;;34.67;12.45;;;1.30;99.90;;;;;;5032656;28;20123;-61
2022/01/11 02:04:33;;;;;;;38.42;11.55;;;1.40;99.90;;;;;;5032428;28;20030;-61
2022/01/11 02:06:59;;;;;;;30.25;11.25;;;1.50;99.90;;;;;;5032692;28;20034;-62
2022/01/11 02:09:24;;;;;;;35.38;11.75;;;1.50;99.90;;;;;;5033071;28;20038;-61
2022/01/11 02:11:50;;;;;;;33.65;11.35;;;1.40;99.90;;;;;;5033328;28;20044;-61
2022/01/11 02:14:15;;;;;;;37.85;10.80;;;1.40;99.90;;;;;;5033377;28;20033;-61
2022/01/11 02:16:41;;;;;;;47.78;13.82;;;1.50;99.90;;;;;;5033514;28;20083;-61
2022/01/11 02:19:07;;;;;;;42.15;13.02;;;1.50;99.90;;;;;;5033266;28;20068;-62
2022/01/11 02:21:32;;;;;;;44.25;13.98;;;1.50;99.90;;;;;;5032691;28;20124;-62
2022/01/11 02:24:01;;;;;;;49.33;14.02;;;1.40;99.90;;;;;;5033369;28;20057;-62
2022/01/11 02:26:26;;;;;;;45.50;13.27;;;1.50;99.90;;;;;;5032537;28;20780;-62
2022/01/11 02:28:52;;;;;;;43.20;13.20;;;1.50;99.90;;;;;;5033319;28;20037;-62
2022/01/11 02:31:18;;;;;;;37.92;12.25;;;1.40;99.90;;;;;;5032228;28;20056;-62
2022/01/11 02:33:47;;;;;;;44.00;13.80;;;1.50;99.90;;;;;;5033467;28;20064;-61
2022/01/11 02:36:14;;;;;;;43.35;13.73;;;1.40;99.90;;;;;;5024709;28;20448;-61
2022/01/11 02:38:40;;;;;;;44.35;13.85;;;1.50;99.90;;;;;;5031924;28;20065;-61
2022/01/11 02:41:06;;;;;;;38.65;12.55;;;1.50;99.90;;;;;;5032343;28;20072;-62
2022/01/11 02:43:31;;;;;;;41.88;12.73;;;1.60;99.90;;;;;;5026740;28;20394;-61
2022/01/11 02:46:01;;;;;;;40.10;12.35;;;1.60;99.90;;;;;;5033270;28;20042;-62
2022/01/11 02:48:28;;;;;;;41.28;13.50;;;1.60;99.90;;;;;;5032644;28;20026;-60
2022/01/11 02:50:54;;;;;;;41.40;12.60;;;1.60;99.90;;;;;;5032756;28;20041;-62
2022/01/11 02:53:19;;;;;;;40.65;13.75;;;1.50;99.90;;;;;;5032652;28;20030;-61
2022/01/11 02:55:45;;;;;;;48.88;13.45;;;1.50;99.90;;;;;;5032661;28;20076;-61
2022/01/11 02:58:12;;;;;;;49.72;14.80;;;1.50;99.90;;;;;;5028251;28;20041;-61
2022/01/11 03:00:39;;;;;;;37.25;12.55;;;1.50;99.90;;;;;;5031905;28;20442;-62
2022/01/11 03:03:22;;;;;;;44.03;14.07;;;1.60;99.90;;;;;;5033074;28;20049;-61
2022/01/11 03:05:50;;;;;;;40.42;13.27;;;1.50;99.90;;;;;;5027737;28;20038;-62
2022/01/11 03:08:17;;;;;;;53.47;14.25;;;1.60;99.90;;;;;;5033444;28;20395;-61
2022/01/11 03:10:42;;;;;;;42.78;13.77;;;1.50;99.90;;;;;;5035070;28;20042;-61
2022/01/11 03:13:09;;;;;;;43.47;12.73;;;1.50;99.90;;;;;;5033151;28;20397;-61
2022/01/11 03:15:36;;;;;;;49.90;14.82;;;1.60;99.90;;;;;;5032250;28;20041;-61
2022/01/11 03:18:04;;;;;;;42.45;13.30;;;1.60;99.90;;;;;;5034609;28;20086;-62
2022/01/11 03:20:30;;;;;;;47.20;13.20;;;1.50;99.90;;;;;;5033491;28;20029;-61
2022/01/11 03:22:56;;;;;;;32.97;11.73;;;1.60;99.90;;;;;;5033533;28;20485;-61
2022/01/11 03:25:21;;;;;;;42.72;14.27;;;1.60;99.90;;;;;;5033504;28;20033;-61
2022/01/11 03:27:47;;;;;;;44.65;13.63;;;1.50;99.90;;;;;;5034720;28;20096;-62
2022/01/11 03:30:13;;;;;;;41.03;13.77;;;1.50;99.90;;;;;;5034408;28;20044;-62
2022/01/11 03:32:38;;;;;;;42.08;13.93;;;1.50;99.90;;;;;;5034704;28;20563;-62
2022/01/11 03:35:06;;;;;;;43.03;13.57;;;1.60;99.90;;;;;;5034952;28;20497;-62
2022/01/11 03:37:32;;;;;;;43.95;15.70;;;1.50;99.90;;;;;;5035657;28;20044;-62
2022/01/11 03:39:57;;;;;;;42.05;13.23;;;1.60;99.90;;;;;;5036448;28;20034;-62
2022/01/11 03:42:23;;;;;;;40.03;13.40;;;1.60;99.90;;;;;;5030748;28;20043;-62
2022/01/11 03:44:50;;;;;;;39.75;13.98;;;1.50;99.90;;;;;;5035367;28;20582;-62
2022/01/11 03:47:16;;;;;;;44.10;15.07;;;1.60;99.90;;;;;;5030723;28;20508;-62
2022/01/11 03:49:42;;;;;;;46.38;14.77;;;1.60;99.90;;;;;;5035366;28;20041;-62
2022/01/11 03:52:08;;;;;;;46.97;14.25;;;1.60;99.90;;;;;;5030894;28;20030;-62
2022/01/11 03:54:43;;;;;;;37.30;14.00;;;1.50;99.90;;;;;;5034985;28;20072;-61
2022/01/11 03:57:08;;;;;;;40.65;12.60;;;1.60;99.90;;;;;;5028065;28;20021;-62
2022/01/11 03:59:34;;;;;;;41.30;13.80;;;1.50;99.90;;;;;;5031413;28;20041;-62
2022/01/11 04:02:00;;;;;;;42.78;13.90;;;1.60;99.90;;;;;;5035398;28;20041;-62
2022/01/11 04:04:26;;;;;;;49.53;14.73;;;1.60;99.90;;;;;;5032449;28;20493;-62
2022/01/11 04:06:52;;;;;;;38.05;14.90;;;1.50;99.90;;;;;;5034532;28;20115;-61
2022/01/11 04:09:19;;;;;;;48.35;16.52;;;1.60;99.90;;;;;;5034145;28;20063;-63
2022/01/11 04:11:45;;;;;;;44.38;15.07;;;1.50;99.90;;;;;;5032842;28;20033;-62
2022/01/11 04:14:10;;;;;;;42.97;15.27;;;1.60;99.90;;;;;;5030542;28;20559;-61
2022/01/11 04:16:36;;;;;;;52.30;15.80;;;1.60;99.90;;;;;;5030135;28;20559;-63
2022/01/11 04:19:02;;;;;;;40.60;14.50;;;1.60;99.90;;;;;;5029531;28;20038;-62
2022/01/11 04:21:28;;;;;;;47.13;14.60;;;1.60;99.90;;;;;;5029239;28;20037;-61
2022/01/11 04:23:54;;;;;;;47.85;15.75;;;1.60;99.90;;;;;;5028915;28;20100;-62
2022/01/11 04:26:20;;;;;;;41.83;13.85;;;1.70;99.90;;;;;;5029433;28;20508;-62
2022/01/11 04:28:46;;;;;;;48.40;15.32;;;1.60;99.90;;;;;;5030081;28;20041;-62
2022/01/11 04:31:11;;;;;;;49.30;15.07;;;1.60;99.90;;;;;;5029861;28;20481;-62
2022/01/11 04:33:42;;;;;;;47.85;14.82;;;1.60;99.90;;;;;;5029753;28;20025;-61
2022/01/11 04:36:08;;;;;;;42.78;13.05;;;1.50;99.90;;;;;;5026314;28;20074;-62
2022/01/11 04:38:34;;;;;;;46.75;17.25;;;1.60;99.90;;;;;;5029216;28;20128;-62
2022/01/11 04:41:01;;;;;;;36.35;13.10;;;1.60;99.90;;;;;;5029497;28;20136;-62
2022/01/11 04:43:26;;;;;;;47.25;13.95;;;1.60;99.90;;;;;;5025762;28;20132;-62
2022/01/11 04:45:52;;;;;;;47.50;15.18;;;1.60;99.90;;;;;;5029845;28;20378;-61
2022/01/11 04:48:20;;;;;;;37.22;12.45;;;1.60;99.90;;;;;;5029279;28;20100;-62
2022/01/11 04:50:46;;;;;;;41.58;14.05;;;1.60;99.90;;;;;;5029300;28;20424;-61
2022/01/11 04:53:12;;;;;;;41.33;13.98;;;1.60;99.90;;;;;;5029314;28;20036;-66
2022/01/11 04:55:38;;;;;;;41.95;15.15;;;1.60;99.90;;;;;;5029615;28;20474;-62
2022/01/11 04:58:03;;;;;;;42.45;13.02;;;1.60;99.90;;;;;;5029620;28;20052;-62
2022/01/11 05:00:29;;;;;;;42.08;13.95;;;1.70;99.90;;;;;;5028887;28;20041;-62
2022/01/11 05:02:59;;;;;;;34.78;12.65;;;1.70;99.90;;;;;;5022702;28;20038;-61
2022/01/11 05:05:26;;;;;;;35.72;13.88;;;1.60;99.90;;;;;;5025268;28;20131;-62
2022/01/11 05:07:52;;;;;;;40.17;12.85;;;1.60;99.90;;;;;;5029647;28;20033;-62
2022/01/11 05:10:17;;;;;;;36.47;11.88;;;1.60;99.90;;;;;;5028516;28;20378;-63
2022/01/11 05:12:43;;;;;;;41.03;13.02;;;1.70;99.90;;;;;;5027991;28;20044;-62
2022/01/11 05:15:14;;;;;;;35.30;12.52;;;1.60;99.90;;;;;;5029501;28;20040;-61
2022/01/11 05:17:40;;;;;;;35.35;12.98;;;1.60;99.90;;;;;;5028736;28;20074;-62
2022/01/11 05:20:07;;;;;;;40.47;14.88;;;1.60;99.90;;;;;;5029122;28;20063;-60
2022/01/11 05:22:33;;;;;;;38.05;13.90;;;1.60;99.90;;;;;;5020902;28;20065;-61
2022/01/11 05:24:59;;;;;;;40.92;12.80;;;1.60;99.90;;;;;;5029365;28;20037;-62
2022/01/11 05:27:27;;;;;;;43.50;14.45;;;1.60;99.90;;;;;;5027480;28;20026;-61
2022/01/11 05:29:53;;;;;;;54.85;15.13;;;1.60;99.90;;;;;;5027294;28;20061;-61
2022/01/11 05:32:19;;;;;;;40.13;13.02;;;1.60;99.90;;;;;;5015413;28;20030;-62
2022/01/11 05:34:45;;;;;;;44.03;15.02;;;1.60;99.90;;;;;;5014164;28;20080;-62
2022/01/11 05:37:10;;;;;;;36.53;13.52;;;1.60;99.90;;;;;;5010989;28;20429;-61
2022/01/11 05:39:36;;;;;;;38.92;13.35;;;1.60;99.90;;;;;;5012206;28;20049;-62
2022/01/11 05:42:06;;;;;;;41.20;14.02;;;1.60;99.90;;;;;;5013447;28;20686;-62
2022/01/11 05:44:35;;;;;;;42.08;14.00;;;1.60;99.90;;;;;;5015252;28;22359;-61
2022/01/11 05:47:01;;;;;;;43.55;14.27;;;1.60;99.90;;;;;;5019978;28;20736;-62
2022/01/11 05:49:26;;;;;;;38.65;12.57;;;1.60;99.90;;;;;;5028478;28;20049;-61
2022/01/11 05:51:52;;;;;;;34.63;13.10;;;1.50;99.90;;;;;;5028693;28;20038;-62
2022/01/11 05:54:18;;;;;;;35.65;12.85;;;1.50;99.90;;;;;;5027035;28;20044;-63
2022/01/11 05:56:44;;;;;;;38.47;14.05;;;1.50;99.90;;;;;;5027686;28;20041;-61
2022/01/11 05:59:10;;;;;;;41.53;13.32;;;1.50;99.90;;;;;;5021728;28;20448;-61
2022/01/11 06:01:36;;;;;;;35.85;13.13;;;1.60;99.90;;;;;;5012132;28;20081;-62
2022/01/11 06:04:01;;;;;;;38.88;12.63;;;1.50;99.90;;;;;;5013783;28;20049;-61
2022/01/11 06:06:27;;;;;;;36.22;13.25;;;1.50;99.90;;;;;;5011395;28;20041;-62
2022/01/11 06:08:52;;;;;;;42.20;13.90;;;1.50;99.90;;;;;;5015771;28;20041;-61
2022/01/11 06:11:18;;;;;;;39.65;14.23;;;1.50;99.90;;;;;;5014792;28;20030;-62
2022/01/11 06:13:44;;;;;;;41.53;14.38;;;1.50;99.90;;;;;;5012336;28;20124;-62
2022/01/11 06:16:10;;;;;;;35.90;13.75;;;1.50;99.90;;;;;;5019783;28;20041;-62
2022/01/11 06:18:35;;;;;;;35.85;13.35;;;1.50;99.90;;;;;;5010525;28;20038;-61
2022/01/11 06:21:02;;;;;;;39.88;12.45;;;1.40;99.90;;;;;;5008506;28;20597;-61
2022/01/11 06:23:28;;;;;;;35.85;12.40;;;1.40;99.90;;;;;;5007205;28;20026;-61
2022/01/11 06:25:53;;;;;;;38.63;13.52;;;1.40;99.90;;;;;;5012230;28;20512;-61
2022/01/11 06:28:19;;;;;;;39.22;12.23;;;1.40;99.90;;;;;;5018796;28;20406;-62
2022/01/11 06:30:45;;;;;;;40.35;13.82;;;1.40;99.90;;;;;;5009884;28;20045;-61
2022/01/11 06:33:11;;;;;;;44.70;14.27;;;1.40;99.90;;;;;;5014085;28;20025;-62
2022/01/11 06:35:36;;;;;;;41.65;13.93;;;1.40;99.90;;;;;;5008858;28;20072;-62
2022/01/11 06:38:02;;;;;;;40.28;12.55;;;1.30;99.90;;;;;;5010286;28;20049;-61
2022/01/11 06:40:28;;;;;;;37.92;13.27;;;1.30;99.90;;;;;;5008527;28;20125;-62
2022/01/11 06:42:53;;;;;;;42.00;14.32;;;1.30;99.90;;;;;;5018286;28;20061;-61
2022/01/11 06:45:21;;;;;;;39.33;13.07;;;1.40;99.90;;;;;;5009372;28;20033;-62
2022/01/11 06:47:47;;;;;;;37.92;12.80;;;1.40;99.90;;;;;;5015959;28;20054;-63
2022/01/11 06:50:12;;;;;;;33.90;13.38;;;1.40;99.90;;;;;;5022314;28;20068;-66
2022/01/11 06:52:38;;;;;;;40.03;13.55;;;1.40;99.90;;;;;;5014550;28;20030;-62
2022/01/11 06:55:05;;;;;;;41.25;13.90;;;1.40;99.90;;;;;;5013542;28;20383;-61
2022/01/11 06:57:31;;;;;;;37.05;12.93;;;1.40;99.90;;;;;;5013052;28;20030;-61
2022/01/11 06:59:56;;;;;;;35.78;13.45;;;1.40;99.90;;;;;;5013764;28;20588;-62
2022/01/11 07:02:22;;;;;;;39.17;13.30;;;1.40;99.90;;;;;;5012417;28;20094;-61
2022/01/11 07:04:48;;;;;;;36.53;11.30;;;1.40;99.90;;;;;;5015422;28;20033;-61
2022/01/11 07:07:13;;;;;;;35.42;12.57;;;1.40;99.90;;;;;;5011270;28;20452;-63
2022/01/11 07:09:39;;;;;;;33.83;12.43;;;1.30;99.90;;;;;;5011352;28;20505;-62
2022/01/11 07:12:05;;;;;;;37.08;12.52;;;1.30;99.90;;;;;;5016567;28;20052;-62
2022/01/11 07:14:31;;;;;;;35.05;12.23;;;1.30;99.90;;;;;;5015080;28;20113;-61
2022/01/11 07:16:56;;;;;;;37.95;14.27;;;1.30;99.90;;;;;;5012484;28;20109;-60
2022/01/11 07:19:23;;;;;;;29.40;10.85;;;1.40;99.90;;;;;;5012968;28;20120;-61
2022/01/11 07:21:48;;;;;;;36.40;12.57;;;1.40;99.90;;;;;;5016607;28;20429;-62
2022/01/11 07:24:15;;;;;;;32.88;12.75;;;1.40;99.90;;;;;;5012119;28;20046;-62
2022/01/11 07:26:42;;;;;;;29.92;11.00;;;1.40;99.90;;;;;;5010401;28;20033;-61
2022/01/11 07:29:08;;;;;;;37.63;14.32;;;1.40;99.90;;;;;;5009465;28;20089;-62
2022/01/11 07:31:36;;;;;;;35.13;12.88;;;1.40;99.90;;;;;;5012482;28;20516;-61
2022/01/11 07:34:03;;;;;;;34.83;11.80;;;1.30;99.90;;;;;;5015618;28;20780;-61
2022/01/11 07:36:29;;;;;;;36.78;13.45;;;1.30;99.90;;;;;;5014405;28;20061;-61
2022/01/11 07:38:54;;;;;;;33.35;10.73;;;1.30;99.90;;;;;;5013579;28;20481;-62
2022/01/11 07:41:20;;;;;;;32.85;11.45;;;1.40;99.90;;;;;;5013524;28;20115;-61
2022/01/11 07:43:45;;;;;;;34.15;11.25;;;1.40;99.90;;;;;;5010272;28;20464;-62
2022/01/11 07:46:11;;;;;;;32.35;11.45;;;1.40;99.90;;;;;;5009429;28;20096;-62
2022/01/11 07:48:37;;;;;;;45.35;13.40;;;1.40;99.90;;;;;;5010008;28;20524;-62
2022/01/11 07:51:03;;;;;;;32.00;12.30;;;1.50;99.90;;;;;;5013896;28;20045;-61
2022/01/11 07:53:29;;;;;;;31.23;11.18;;;1.50;99.90;;;;;;5010967;28;20033;-61
2022/01/11 07:55:54;;;;;;;32.30;11.65;;;1.50;99.90;;;;;;5011411;28;20037;-61
2022/01/11 07:58:20;;;;;;;32.67;11.55;;;1.40;99.90;;;;;;5015792;28;20056;-62
2022/01/11 08:00:46;;;;;;;36.25;12.02;;;1.50;99.90;;;;;;5010834;28;20084;-62
2022/01/11 08:03:11;;;;;;;34.40;13.60;;;1.50;99.90;;;;;;5012572;28;20571;-61
2022/01/11 08:05:37;;;;;;;37.20;11.27;;;1.50;99.90;;;;;;5010940;28;20026;-61
2022/01/11 08:08:03;;;;;;;33.00;11.45;;;1.60;99.90;;;;;;5010312;28;20116;-61
2022/01/11 08:10:29;;;;;;;29.58;9.75;;;1.60;99.90;;;;;;5010119;28;20116;-62
2022/01/11 08:12:54;;;;;;;30.92;11.18;;;1.60;99.90;;;;;;5013802;28;20125;-61
2022/01/11 08:15:20;;;;;;;24.98;9.95;;;1.60;99.90;;;;;;5014344;28;20053;-62
2022/01/11 08:17:47;;;;;;;26.40;9.38;;;1.60;99.90;;;;;;5012965;28;20058;-62
2022/01/11 08:20:12;;;;;;;26.63;8.95;;;1.60;99.90;;;;;;5011780;28;20030;-62
2022/01/11 08:22:38;;;;;;;21.13;9.18;;;1.70;99.90;;;;;;5009481;28;20040;-61
2022/01/11 08:25:05;;;;;;;22.60;9.63;;;1.70;99.90;;;;;;5008626;28;20030;-61
2022/01/11 08:27:33;;;;;;;22.05;8.90;;;1.70;99.90;;;;;;5012396;28;20037;-61
2022/01/11 08:29:59;;;;;;;24.98;9.80;;;1.70;99.90;;;;;;5010431;28;20084;-61
2022/01/11 08:32:25;;;;;;;23.40;9.10;;;1.70;99.90;;;;;;5012611;28;20029;-62
2022/01/11 08:34:51;;;;;;;23.10;8.80;;;1.70;99.90;;;;;;5011917;28;20048;-61
2022/01/11 08:37:17;;;;;;;26.73;8.90;;;1.70;99.90;;;;;;5010203;28;20029;-61
2022/01/11 08:39:43;;;;;;;23.95;8.50;;;1.70;99.90;;;;;;5009929;28;20045;-61
2022/01/11 08:42:12;;;;;;;22.52;8.75;;;1.70;99.90;;;;;;5010361;28;20037;-63
2022/01/11 08:44:42;;;;;;;23.38;8.07;;;1.70;99.90;;;;;;5013657;28;20042;-61
2022/01/11 08:47:08;;;;;;;18.20;6.90;;;1.80;99.90;;;;;;5019067;28;20520;-62
2022/01/11 08:49:34;;;;;;;17.60;8.55;;;1.80;99.90;;;;;;5017827;28;20042;-62
2022/01/11 08:52:00;;;;;;;22.23;7.93;;;1.80;99.90;;;;;;5011630;28;20100;-61
2022/01/11 08:54:26;;;;;;;18.52;8.10;;;1.90;99.90;;;;;;5014640;28;20509;-61
2022/01/11 08:56:54;;;;;;;25.77;8.32;;;1.90;99.90;;;;;;5011689;28;20037;-62
2022/01/11 08:59:21;;;;;;;18.73;7.88;;;2.00;99.90;;;;;;5008260;28;20034;-62
2022/01/11 09:01:48;;;;;;;20.45;7.00;;;2.00;99.90;;;;;;5007610;28;20049;-62
2022/01/11 09:04:14;;;;;;;21.25;8.05;;;2.00;99.90;;;;;;5008366;28;20099;-62
2022/01/11 09:06:39;;;;;;;18.15;6.93;;;2.00;99.90;;;;;;5014107;28;20432;-62
2022/01/11 09:09:05;;;;;;;19.27;6.68;;;2.00;99.90;;;;;;5011387;28;20041;-62
2022/01/11 09:11:31;;;;;;;21.55;8.10;;;2.00;99.90;;;;;;5011681;28;20033;-61
2022/01/11 09:13:57;;;;;;;26.55;7.85;;;2.00;99.90;;;;;;5009360;28;20508;-62
2022/01/11 09:16:24;;;;;;;17.08;7.28;;;2.10;99.90;;;;;;5012272;28;20119;-61
2022/01/11 09:18:50;;;;;;;19.70;7.13;;;2.10;99.90;;;;;;5008483;28;20046;-61
2022/01/11 09:21:16;;;;;;;22.42;8.10;;;2.10;99.90;;;;;;5009711;28;20045;-61
2022/01/11 09:23:42;;;;;;;20.13;7.22;;;2.10;99.90;;;;;;5010192;28;20092;-62
2022/01/11 09:26:08;;;;;;;17.65;6.93;;;2.20;99.90;;;;;;5010045;28;20034;-61
2022/01/11 09:28:33;;;;;;;18.48;6.78;;;2.20;99.90;;;;;;5009785;28;20125;-61
2022/01/11 09:30:59;;;;;;;17.35;6.70;;;2.20;99.90;;;;;;5017555;28;20117;-61
2022/01/11 09:33:25;;;;;;;20.48;8.25;;;2.30;99.90;;;;;;5011740;28;20076;-61
2022/01/11 09:35:51;;;;;;;20.75;6.88;;;2.30;99.90;;;;;;5012910;28;20041;-61
2022/01/11 09:38:16;;;;;;;20.50;6.93;;;2.30;99.90;;;;;;5009056;28;20026;-60
2022/01/11 09:40:42;;;;;;;16.92;7.35;;;2.30;99.90;;;;;;5009921;28;20038;-62
2022/01/11 09:43:08;;;;;;;18.10;6.88;;;2.20;99.90;;;;;;5017797;28;20034;-62
2022/01/11 09:45:35;;;;;;;19.92;7.97;;;2.20;99.90;;;;;;5013772;28;20026;-62
2022/01/11 09:48:00;;;;;;;20.83;6.82;;;2.20;99.90;;;;;;5019827;28;20041;-61
2022/01/11 09:50:26;;;;;;;18.90;7.50;;;2.20;99.90;;;;;;5011696;28;20057;-62
2022/01/11 09:52:52;;;;;;;17.85;6.60;;;2.10;99.90;;;;;;5009834;28;20041;-62
2022/01/11 09:55:18;;;;;;;16.25;6.60;;;2.10;99.90;;;;;;5010834;28;20030;-61
2022/01/11 09:57:43;;;;;;;18.20;6.43;;;2.10;99.90;;;;;;5010792;28;20029;-61
2022/01/11 10:00:11;;;;;;;15.43;6.75;;;2.10;99.90;;;;;;5010771;28;20524;-62
2022/01/11 10:02:37;;;;;;;21.13;5.97;;;2.10;99.90;;;;;;5010191;28;20121;-62
2022/01/11 10:05:06;;;;;;;17.55;6.10;;;2.00;99.90;;;;;;5016223;28;20121;-62
2022/01/11 10:07:40;;;;;;;18.02;7.03;;;2.10;99.90;;;;;;5011357;28;20105;-61
2022/01/11 10:10:16;;;;;;;15.23;6.80;;;2.10;99.90;;;;;;5028550;28;20133;-61
2022/01/11 10:12:47;;;;;;;15.95;6.57;;;2.10;99.90;;;;;;5017151;28;20033;-61
2022/01/11 10:15:13;;;;;;;21.65;6.43;;;2.10;99.90;;;;;;5012226;28;20029;-61
2022/01/11 10:17:43;;;;;;;21.10;7.78;;;2.00;99.90;;;;;;5013031;28;20041;-61
2022/01/11 10:20:14;;;;;;;18.52;6.95;;;2.10;99.90;;;;;;5014364;28;20400;-63
2022/01/11 10:22:56;;;;;;;19.27;6.95;;;2.10;99.90;;;;;;5026824;28;20034;-63
2022/01/11 10:25:23;;;;;;;17.65;6.18;;;2.10;99.90;;;;;;5017821;28;20045;-63
2022/01/11 10:27:54;;;;;;;17.30;6.10;;;2.10;99.90;;;;;;5023894;28;20026;-62
2022/01/11 10:30:23;;;;;;;19.35;6.18;;;2.10;99.90;;;;;;5015061;28;20034;-61
2022/01/11 10:32:50;;;;;;;19.45;6.45;;;2.20;99.90;;;;;;5020685;28;20022;-62
2022/01/11 10:35:23;;;;;;;18.25;6.20;;;2.20;99.90;;;;;;5016544;28;20034;-62
2022/01/11 10:37:53;;;;;;;15.40;5.38;;;2.30;99.90;;;;;;5015688;28;20084;-61
2022/01/11 10:40:43;;;;;;;16.98;6.90;;;2.20;99.90;;;;;;5014106;28;20483;-62
2022/01/11 10:43:12;;;;;;;15.90;5.87;;;2.30;99.90;;;;;;5030084;28;20034;-62
2022/01/11 10:45:41;;;;;;;16.73;7.32;;;2.30;99.90;;;;;;5013739;28;20033;-62
2022/01/11 10:48:09;;;;;;;15.27;5.88;;;2.50;99.90;;;;;;5011541;28;20050;-61
2022/01/11 10:50:56;;;;;;;18.92;6.47;;;2.50;99.90;;;;;;5012746;28;20041;-60
2022/01/11 10:53:23;;;;;;;17.58;6.05;;;2.60;99.90;;;;;;5011773;28;20132;-61
2022/01/11 10:55:52;;;;;;;16.80;7.00;;;2.70;99.90;;;;;;5020017;28;20045;-61
2022/01/11 10:58:17;;;;;;;13.30;5.40;;;2.80;99.90;;;;;;5024201;28;20046;-61
2022/01/11 11:00:48;;;;;;;15.82;6.35;;;2.90;99.90;;;;;;5014901;28;20044;-61
2022/01/11 11:03:16;;;;;;;23.35;6.38;;;2.80;99.90;;;;;;5014509;28;20034;-62
2022/01/11 11:05:56;;;;;;;13.57;6.10;;;2.90;99.90;;;;;;5011630;28;20030;-61
2022/01/11 11:08:30;;;;;;;14.35;5.60;;;2.90;99.90;;;;;;5012742;28;20432;-61
2022/01/11 11:10:55;;;;;;;16.45;5.50;;;2.90;99.90;;;;;;5014070;28;20037;-62
2022/01/11 11:13:21;;;;;;;15.80;6.15;;;2.90;99.90;;;;;;5013983;28;20486;-62
2022/01/11 11:15:49;;;;;;;18.25;6.00;;;2.90;99.90;;;;;;5008876;28;20045;-60
2022/01/11 11:18:30;;;;;;;13.70;5.40;;;2.90;99.90;;;;;;5012488;28;20042;-61
2022/01/11 11:20:56;;;;;;;13.32;5.53;;;2.80;99.90;;;;;;5012094;28;20040;-64
2022/01/11 11:23:23;;;;;;;12.13;5.90;;;2.90;99.90;;;;;;5010065;28;20045;-63
2022/01/11 11:25:48;;;;;;;17.40;5.85;;;2.80;99.90;;;;;;5010564;28;20033;-61
2022/01/11 11:28:15;;;;;;;16.73;5.20;;;2.90;99.90;;;;;;5010647;28;20092;-61
2022/01/11 11:30:45;;;;;;;12.82;5.72;;;2.90;99.90;;;;;;5018716;28;20062;-63
2022/01/11 11:33:11;;;;;;;11.23;5.03;;;3.10;99.90;;;;;;5012778;28;20029;-62
2022/01/11 11:35:37;;;;;;;14.00;5.13;;;3.10;99.90;;;;;;5013726;28;20525;-63
2022/01/11 11:38:07;;;;;;;10.48;4.55;;;3.30;99.90;;;;;;5015037;28;20540;-62
2022/01/11 11:40:34;;;;;;;17.45;5.80;;;3.30;99.90;;;;;;5011414;28;20038;-61
2022/01/11 11:43:02;;;;;;;12.60;5.35;;;3.30;99.90;;;;;;5016846;28;20389;-61
2022/01/11 11:45:38;;;;;;;14.93;5.25;;;3.30;99.90;;;;;;5013009;28;20030;-62
2022/01/11 11:48:10;;;;;;;11.10;5.10;;;3.30;99.90;;;;;;5023518;28;20049;-61
2022/01/11 11:51:05;;;;;;;15.35;5.00;;;3.30;99.90;;;;;;5006891;28;20026;-63
2022/01/11 11:53:34;;;;;;;13.00;4.57;;;3.20;99.90;;;;;;5014558;28;20045;-61
2022/01/11 11:56:13;;;;;;;18.35;5.82;;;3.20;99.90;;;;;;5017583;28;20125;-62
2022/01/11 11:58:48;;;;;;;12.93;4.85;;;3.30;99.90;;;;;;5007087;28;20044;-60
2022/01/11 12:01:50;;;;;;;11.23;4.28;;;3.40;99.90;;;;;;5012340;28;20072;-64
2022/01/11 12:04:37;;;;;;;13.25;5.75;;;3.50;99.90;;;;;;4965417;28;20046;-62
2022/01/11 12:07:40;;;;;;;13.00;4.63;;;3.70;99.90;;;;;;5001115;28;20058;-61
2022/01/11 12:10:14;;;;;;;13.30;4.90;;;3.80;99.90;;;;;;4979359;28;20052;-61
2022/01/11 12:12:44;;;;;;;11.55;4.25;;;3.90;99.90;;;;;;5030286;28;20030;-61
2022/01/11 12:15:22;;;;;;;12.60;4.85;;;4.00;99.90;;;;;;5012317;28;20175;-61
2022/01/11 12:18:07;;;;;;;9.30;4.65;;;4.10;99.90;;;;;;5011453;28;20056;-63
2022/01/11 12:20:46;;;;;;;9.55;3.72;;;4.20;99.90;;;;;;4999725;28;20038;-63
2022/01/11 12:23:32;;;;;;;17.25;5.53;;;4.40;99.90;;;;;;5010493;28;20044;-61
2022/01/11 12:26:14;;;;;;;11.25;4.88;;;4.60;99.90;;;;;;5025810;28;20042;-62
2022/01/11 12:28:40;;;;;;;12.18;4.50;;;4.70;99.90;;;;;;5017234;28;20597;-61
2022/01/11 12:31:28;;;;;;;11.02;4.10;;;4.80;99.90;;;;;;5011933;28;20041;-62
2022/01/11 12:33:53;;;;;;;9.52;3.78;;;4.90;99.90;;;;;;5025539;28;20041;-62
2022/01/11 12:36:19;;;;;;;9.88;4.60;;;5.00;99.90;;;;;;5013700;28;20752;-61
2022/01/11 12:39:14;;;;;;;11.55;4.25;;;5.10;99.90;;;;;;5009222;28;20056;-61
2022/01/11 12:41:40;;;;;;;10.70;4.00;;;5.10;99.90;;;;;;4998428;28;20044;-61
2022/01/11 12:47:05;;;;;;;11.70;4.35;;;5.10;99.90;;;;;;5012946;28;20057;-63
2022/01/11 12:49:31;;;;;;;11.45;5.05;;;5.10;99.90;;;;;;5012837;28;20096;-64